Time;durP1;ratioP1;P1;durP2;ratioP2;P2;SDS_P1;SDS_P2;PMS_P1;PMS_P2;Temp;Humidity;BMP_temperature;BMP_pressure;BME280_temperature;BME280_humidity;BME280_pressure;Samples;Min_cycle;Max_cycle;Signal;HPM_P1;HPM_P2
2022/11/18 00:02:07;;;;;;;0.70;0.70;;;8.30;99.90;;;;;;4960970;28;20536;-87
2022/11/18 00:04:32;;;;;;;0.60;0.60;;;8.30;99.90;;;;;;4967517;28;21067;-87
2022/11/18 00:06:58;;;;;;;0.60;0.60;;;8.30;99.90;;;;;;4955628;28;20048;-92
2022/11/18 00:09:27;;;;;;;0.65;0.65;;;8.30;99.90;;;;;;4957115;28;20048;-89
2022/11/18 00:14:37;;;;;;;0.60;0.60;;;8.30;99.90;;;;;;4967612;28;20147;-90
2022/11/18 00:17:07;;;;;;;0.60;0.60;;;8.40;99.90;;;;;;4950858;28;20097;-92
2022/11/18 00:19:39;;;;;;;0.70;0.70;;;8.40;99.90;;;;;;4968393;28;20098;-88
2022/11/18 00:22:07;;;;;;;0.60;0.60;;;8.30;99.90;;;;;;4955292;28;20493;-90
2022/11/18 00:24:36;;;;;;;0.60;0.60;;;8.30;99.90;;;;;;4960449;28;20478;-93
2022/11/18 00:27:01;;;;;;;0.60;0.60;;;8.30;99.90;;;;;;4947549;28;20538;-90
2022/11/18 00:29:30;;;;;;;0.60;0.60;;;8.30;99.90;;;;;;4924168;28;20414;-89
2022/11/18 00:31:57;;;;;;;0.60;0.60;;;8.40;99.90;;;;;;4958111;28;20075;-89
2022/11/18 00:34:29;;;;;;;0.60;0.60;;;8.40;99.90;;;;;;4958302;28;20076;-91
2022/11/18 00:36:55;;;;;;;0.63;0.63;;;8.20;99.90;;;;;;4957924;28;20040;-90
2022/11/18 00:39:24;;;;;;;0.60;0.60;;;8.40;99.90;;;;;;4955300;28;20841;-90
2022/11/18 00:44:43;;;;;;;0.60;0.60;;;8.40;99.90;;;;;;4977137;28;20389;-90
2022/11/18 00:47:09;;;;;;;0.60;0.60;;;8.50;99.90;;;;;;4960543;28;20055;-88
2022/11/18 00:49:35;;;;;;;0.60;0.60;;;8.30;99.90;;;;;;4980351;28;20045;-85
2022/11/18 00:52:01;;;;;;;0.60;0.60;;;8.30;99.90;;;;;;4959490;28;20460;-93
2022/11/18 00:54:27;;;;;;;0.60;0.60;;;8.30;99.90;;;;;;4961818;28;20506;-85
2022/11/18 00:56:53;;;;;;;0.60;0.60;;;8.40;99.90;;;;;;4973263;28;20052;-88
2022/11/18 00:59:21;;;;;;;0.60;0.60;;;8.30;99.90;;;;;;4945280;28;20214;-90
2022/11/18 01:01:49;;;;;;;0.60;0.60;;;8.30;99.90;;;;;;4962633;28;20459;-91
2022/11/18 01:04:15;;;;;;;0.70;0.70;;;8.30;99.90;;;;;;4958258;28;20052;-88
2022/11/18 01:06:44;;;;;;;0.60;0.60;;;8.40;99.90;;;;;;4960837;28;20344;-90
2022/11/18 01:09:10;;;;;;;0.60;0.60;;;8.30;99.90;;;;;;4960983;28;20365;-90
2022/11/18 01:14:26;;;;;;;0.60;0.60;;;8.40;99.90;;;;;;4978273;28;20059;-91
2022/11/18 01:17:03;;;;;;;0.60;0.60;;;8.30;99.90;;;;;;4965386;28;20037;-88
2022/11/18 01:19:29;;;;;;;0.60;0.60;;;8.30;99.90;;;;;;4959494;28;20409;-92
2022/11/18 01:22:01;;;;;;;0.60;0.60;;;8.40;99.90;;;;;;4959700;28;20086;-88
2022/11/18 01:24:31;;;;;;;0.60;0.60;;;8.30;99.90;;;;;;4973337;28;20055;-93
2022/11/18 01:27:00;;;;;;;0.60;0.60;;;8.40;99.90;;;;;;4986659;28;20094;-90
2022/11/18 01:29:25;;;;;;;0.70;0.70;;;8.40;99.90;;;;;;4963440;28;20040;-86
2022/11/18 01:32:00;;;;;;;0.60;0.60;;;8.30;99.90;;;;;;4983100;28;20486;-92
2022/11/18 01:34:28;;;;;;;0.60;0.60;;;8.30;99.90;;;;;;4988126;28;20051;-92
2022/11/18 01:36:55;;;;;;;0.60;0.60;;;8.30;99.90;;;;;;4982873;28;20056;-91
2022/11/18 01:39:41;;;;;;;0.60;0.60;;;8.30;99.90;;;;;;4967527;28;20066;-93
2022/11/18 01:42:14;;;;;;;0.60;0.60;;;8.40;99.90;;;;;;4967591;28;20537;-92
2022/11/18 01:44:59;;;;;;;0.60;0.60;;;8.40;99.90;;;;;;4964529;28;20106;-89
2022/11/18 01:47:34;;;;;;;0.60;0.60;;;8.30;99.90;;;;;;4985959;28;20040;-91
2022/11/18 01:50:04;;;;;;;0.60;0.60;;;8.30;99.90;;;;;;4984563;28;20046;-89
2022/11/18 01:52:32;;;;;;;0.60;0.60;;;8.30;99.90;;;;;;4958395;28;20591;-92
2022/11/18 01:55:13;;;;;;;0.60;0.60;;;8.30;99.90;;;;;;4981219;28;20302;-91
2022/11/18 01:57:41;;;;;;;0.60;0.60;;;8.30;99.90;;;;;;4969275;28;20087;-91
2022/11/18 02:00:10;;;;;;;0.60;0.60;;;8.30;99.90;;;;;;4965898;28;20473;-91
2022/11/18 02:02:37;;;;;;;0.70;0.70;;;8.30;99.90;;;;;;4947754;28;20078;-90
2022/11/18 02:05:07;;;;;;;0.60;0.60;;;8.40;99.90;;;;;;4968566;28;20068;-93
2022/11/18 02:07:40;;;;;;;0.70;0.70;;;8.30;99.90;;;;;;4952714;28;20996;-92
2022/11/18 02:10:32;;;;;;;0.60;0.60;;;8.30;99.90;;;;;;4967914;28;20059;-89
2022/11/18 02:13:02;;;;;;;0.60;0.60;;;8.40;99.90;;;;;;4958407;28;20056;-91
2022/11/18 02:16:05;;;;;;;0.60;0.60;;;8.40;99.90;;;;;;4974373;28;20490;-93
2022/11/18 02:18:56;;;;;;;0.60;0.60;;;8.30;99.90;;;;;;4973892;28;20402;-91
2022/11/18 02:21:46;;;;;;;0.60;0.60;;;8.30;99.90;;;;;;4978663;28;20036;-92
2022/11/18 02:24:18;;;;;;;0.60;0.60;;;8.30;99.90;;;;;;4978794;28;20532;-88
2022/11/18 02:27:18;;;;;;;0.60;0.60;;;8.40;99.90;;;;;;4989563;28;20036;-90
2022/11/18 02:29:59;;;;;;;0.60;0.60;;;8.30;99.90;;;;;;4972892;28;20159;-87
2022/11/18 02:32:34;;;;;;;0.60;0.60;;;8.30;99.90;;;;;;4966489;28;20044;-90
2022/11/18 02:35:11;;;;;;;0.60;0.60;;;8.20;99.90;;;;;;4967487;28;20044;-94
2022/11/18 02:37:46;;;;;;;0.60;0.60;;;8.40;99.90;;;;;;4965783;28;20033;-90
2022/11/18 02:40:14;;;;;;;0.60;0.60;;;8.30;99.90;;;;;;4980058;28;20127;-91
2022/11/18 02:42:44;;;;;;;0.60;0.60;;;8.40;99.90;;;;;;4965480;28;20045;-93
2022/11/18 02:45:14;;;;;;;0.60;0.60;;;8.30;99.90;;;;;;4994203;28;20119;-93
2022/11/18 02:47:46;;;;;;;0.60;0.60;;;8.30;99.90;;;;;;4983164;28;20132;-91
2022/11/18 02:50:26;;;;;;;0.60;0.60;;;8.30;99.90;;;;;;4964017;28;20057;-86
2022/11/18 02:53:04;;;;;;;0.60;0.60;;;8.30;99.90;;;;;;4968170;28;20059;-93
2022/11/18 02:55:45;;;;;;;;;;;;;;;;;;;;;
2022/11/18 02:58:13;;;;;;;0.60;0.60;;;8.40;99.90;;;;;;4981922;28;20327;-91
2022/11/18 03:00:39;;;;;;;0.60;0.60;;;8.30;99.90;;;;;;4984522;28;21045;-89
2022/11/18 03:03:36;;;;;;;0.60;0.60;;;8.30;99.90;;;;;;4976230;28;20055;-93
2022/11/18 03:06:12;;;;;;;0.60;0.60;;;8.40;99.90;;;;;;4982083;28;20115;-90
2022/11/18 03:09:08;;;;;;;0.60;0.60;;;8.30;99.90;;;;;;4963844;28;20381;-90
2022/11/18 03:11:59;;;;;;;0.60;0.60;;;8.30;99.90;;;;;;4976682;28;20143;-92
2022/11/18 03:14:28;;;;;;;0.60;0.60;;;8.30;99.90;;;;;;4960610;28;20402;-91
2022/11/18 03:17:02;;;;;;;0.60;0.60;;;8.40;99.90;;;;;;4974813;28;20493;-89
2022/11/18 03:19:58;;;;;;;0.60;0.60;;;8.40;99.90;;;;;;4975680;28;20397;-90
2022/11/18 03:22:41;;;;;;;0.60;0.60;;;8.40;99.90;;;;;;4967045;28;20044;-90
2022/11/18 03:25:36;;;;;;;0.60;0.60;;;8.30;99.90;;;;;;4992421;28;20583;-92
2022/11/18 03:28:21;;;;;;;0.60;0.60;;;8.30;99.90;;;;;;4961157;28;20297;-94
2022/11/18 03:30:58;;;;;;;0.60;0.60;;;8.40;99.90;;;;;;4988418;28;20044;-92
2022/11/18 03:33:37;;;;;;;0.60;0.60;;;8.30;99.90;;;;;;4986676;28;20262;-92
2022/11/18 03:36:10;;;;;;;0.60;0.60;;;8.40;99.90;;;;;;4971284;28;20059;-93
2022/11/18 03:38:40;;;;;;;0.60;0.60;;;8.30;99.90;;;;;;4964817;28;20473;-89
2022/11/18 03:41:10;;;;;;;0.60;0.60;;;8.30;99.90;;;;;;4974894;28;20052;-89
2022/11/18 03:44:09;;;;;;;0.60;0.60;;;8.30;99.90;;;;;;4964060;28;20051;-92
2022/11/18 03:46:43;;;;;;;0.60;0.60;;;8.30;99.90;;;;;;4969964;28;20105;-91
2022/11/18 03:49:13;;;;;;;0.60;0.60;;;8.40;99.90;;;;;;4964216;28;20056;-87
2022/11/18 03:51:53;;;;;;;0.60;0.60;;;8.30;99.90;;;;;;4966701;28;20438;-92
2022/11/18 03:54:27;;;;;;;0.60;0.60;;;8.30;99.90;;;;;;4968570;28;20048;-89
2022/11/18 03:57:18;;;;;;;0.60;0.60;;;8.40;99.90;;;;;;4988981;28;20387;-91
2022/11/18 03:59:58;;;;;;;0.60;0.60;;;8.40;99.90;;;;;;4966595;28;20366;-91
2022/11/18 04:02:29;;;;;;;0.60;0.60;;;8.30;99.90;;;;;;4974051;28;20486;-94
2022/11/18 04:05:00;;;;;;;0.60;0.60;;;8.30;99.90;;;;;;4975113;28;20339;-88
2022/11/18 04:07:45;;;;;;;0.60;0.60;;;8.30;99.90;;;;;;4976796;28;20045;-90
2022/11/18 04:10:21;;;;;;;0.60;0.60;;;8.30;99.90;;;;;;4973779;28;20049;-93
2022/11/18 04:13:02;;;;;;;0.60;0.60;;;8.30;99.90;;;;;;4963164;28;20158;-93
2022/11/18 04:15:30;;;;;;;0.60;0.60;;;8.20;99.90;;;;;;4976499;28;20052;-90
2022/11/18 04:18:18;;;;;;;;;;;;;;;;;;;;;
2022/11/18 04:20:52;;;;;;;0.60;0.60;;;8.30;99.90;;;;;;4993668;28;20145;-91
2022/11/18 04:23:18;;;;;;;0.60;0.60;;;8.20;99.90;;;;;;4974170;28;20286;-91
2022/11/18 04:25:44;;;;;;;0.60;0.60;;;8.20;99.90;;;;;;4984165;28;20836;-92
2022/11/18 04:28:10;;;;;;;0.60;0.60;;;8.30;99.90;;;;;;4971542;28;20105;-90
2022/11/18 04:30:38;;;;;;;0.60;0.60;;;8.20;99.90;;;;;;4975173;28;20049;-89
2022/11/18 04:33:04;;;;;;;0.60;0.60;;;8.20;99.90;;;;;;4950266;28;20052;-91
2022/11/18 04:35:30;;;;;;;0.60;0.60;;;8.20;99.90;;;;;;4936079;28;20538;-90
2022/11/18 04:37:59;;;;;;;0.60;0.60;;;8.30;99.90;;;;;;4974995;28;20043;-94
2022/11/18 04:40:48;;;;;;;0.60;0.60;;;8.30;99.90;;;;;;4977975;28;20037;-93
2022/11/18 04:43:19;;;;;;;0.60;0.60;;;8.20;99.90;;;;;;4965938;28;20654;-92
2022/11/18 04:45:48;;;;;;;0.60;0.60;;;8.20;99.90;;;;;;4961204;28;20152;-92
2022/11/18 04:48:14;;;;;;;0.60;0.60;;;8.20;99.90;;;;;;4969610;28;20371;-89
2022/11/18 04:50:43;;;;;;;0.60;0.60;;;8.20;99.90;;;;;;4952627;28;20504;-93
2022/11/18 04:53:09;;;;;;;0.60;0.60;;;8.20;99.90;;;;;;4965322;28;20433;-91
2022/11/18 04:55:58;;;;;;;0.60;0.60;;;8.20;99.90;;;;;;4974477;28;20417;-92
2022/11/18 04:58:33;;;;;;;0.60;0.60;;;8.10;99.90;;;;;;4986665;28;20052;-90
2022/11/18 05:00:58;;;;;;;0.60;0.60;;;8.10;99.90;;;;;;4977324;28;20063;-93
2022/11/18 05:03:27;;;;;;;0.60;0.60;;;8.10;99.90;;;;;;4970198;28;20036;-90
2022/11/18 05:05:55;;;;;;;0.60;0.60;;;8.10;99.90;;;;;;4963830;28;20068;-94
2022/11/18 05:08:26;;;;;;;0.60;0.60;;;8.20;99.90;;;;;;4973268;28;20094;-88
2022/11/18 05:12:47;;;;;;;0.60;0.60;;;8.20;99.90;;;;;;4970852;28;20071;-92
2022/11/18 05:13:43;;;;;;;0.60;0.60;;;8.10;99.90;;;;;;4981619;28;20545;-87
2022/11/18 05:16:11;;;;;;;0.60;0.60;;;8.10;99.90;;;;;;4981040;28;20055;-90
2022/11/18 05:18:39;;;;;;;0.63;0.63;;;8.10;99.90;;;;;;4954058;28;20043;-91
2022/11/18 05:21:08;;;;;;;0.60;0.60;;;8.10;99.90;;;;;;4967059;28;20474;-91
2022/11/18 05:23:37;;;;;;;0.60;0.60;;;8.00;99.90;;;;;;4948556;28;20139;-91
2022/11/18 05:26:13;;;;;;;0.70;0.70;;;8.20;99.90;;;;;;4954540;28;20649;-92
2022/11/18 05:28:41;;;;;;;0.60;0.60;;;8.10;99.90;;;;;;4964368;28;20047;-91
2022/11/18 05:31:12;;;;;;;0.60;0.60;;;8.20;99.90;;;;;;4974326;28;20040;-95
2022/11/18 05:33:46;;;;;;;0.60;0.60;;;8.10;99.90;;;;;;4971597;28;20095;-88
2022/11/18 05:36:14;;;;;;;0.60;0.60;;;8.10;99.90;;;;;;4969465;28;20044;-91
2022/11/18 05:38:43;;;;;;;0.60;0.60;;;8.10;99.90;;;;;;4976483;28;20047;-94
2022/11/18 05:43:09;;;;;;;0.60;0.60;;;8.10;99.90;;;;;;4976916;28;20559;-91
2022/11/18 05:43:56;;;;;;;0.60;0.60;;;8.10;99.90;;;;;;4979525;28;20049;-88
2022/11/18 05:46:21;;;;;;;0.60;0.60;;;8.10;99.90;;;;;;4943710;28;20110;-91
2022/11/18 05:48:59;;;;;;;0.60;0.60;;;8.10;99.90;;;;;;4964229;28;20315;-93
2022/11/18 05:51:25;;;;;;;0.60;0.60;;;8.10;99.90;;;;;;4964993;28;20078;-90
2022/11/18 05:53:52;;;;;;;0.60;0.60;;;8.10;99.90;;;;;;4958267;28;20358;-90
2022/11/18 05:56:21;;;;;;;0.60;0.60;;;8.10;99.90;;;;;;4962653;28;20105;-91
2022/11/18 05:58:50;;;;;;;0.60;0.60;;;8.00;99.90;;;;;;4981431;28;20048;-91
2022/11/18 06:01:21;;;;;;;0.60;0.60;;;8.00;99.90;;;;;;4973629;28;20515;-89
2022/11/18 06:03:50;;;;;;;0.60;0.60;;;8.00;99.90;;;;;;4957453;28;20040;-90
2022/11/18 06:06:20;;;;;;;0.60;0.60;;;7.90;99.90;;;;;;4959387;28;20052;-88
2022/11/18 06:08:57;;;;;;;0.60;0.60;;;8.10;99.90;;;;;;4978047;28;20144;-92
2022/11/18 06:11:30;;;;;;;0.60;0.60;;;8.00;99.90;;;;;;4963548;28;20044;-90
2022/11/18 06:14:11;;;;;;;0.60;0.60;;;8.00;99.90;;;;;;4970178;28;20549;-90
2022/11/18 06:16:38;;;;;;;0.60;0.60;;;7.90;99.90;;;;;;4960844;28;20151;-91
2022/11/18 06:19:04;;;;;;;0.60;0.60;;;8.10;99.90;;;;;;4950070;28;20059;-94
2022/11/18 06:21:33;;;;;;;0.60;0.60;;;7.90;99.90;;;;;;4961110;28;20040;-90
2022/11/18 06:24:02;;;;;;;0.60;0.60;;;8.00;99.90;;;;;;4988240;28;20377;-90
2022/11/18 06:26:28;;;;;;;0.60;0.60;;;7.90;99.90;;;;;;4973466;28;20048;-89
2022/11/18 06:28:55;;;;;;;0.60;0.60;;;7.90;99.90;;;;;;4966633;28;20833;-93
2022/11/18 06:31:24;;;;;;;0.60;0.60;;;8.00;99.90;;;;;;4971972;28;20094;-90
2022/11/18 06:33:50;;;;;;;0.70;0.70;;;8.00;99.90;;;;;;4968444;28;20049;-89
2022/11/18 06:36:18;;;;;;;0.60;0.60;;;7.90;99.90;;;;;;4959237;28;20292;-93
2022/11/18 06:38:47;;;;;;;0.60;0.60;;;8.00;99.90;;;;;;4993745;28;20083;-88
2022/11/18 06:41:26;;;;;;;0.60;0.60;;;7.80;99.90;;;;;;4942006;28;20914;-92
2022/11/18 06:43:54;;;;;;;0.60;0.60;;;7.90;99.90;;;;;;4939429;28;20274;-91
2022/11/18 06:49:14;;;;;;;0.60;0.60;;;7.90;99.90;;;;;;4977175;28;20080;-91
2022/11/18 06:51:40;;;;;;;0.60;0.60;;;7.80;99.90;;;;;;4951582;28;20359;-90
2022/11/18 06:54:15;;;;;;;0.60;0.60;;;7.90;99.90;;;;;;4970147;28;20475;-92
2022/11/18 06:59:36;;;;;;;0.60;0.60;;;7.90;99.90;;;;;;4970039;28;20493;-93
2022/11/18 07:02:01;;;;;;;0.60;0.60;;;7.80;99.90;;;;;;4949513;28;20094;-85
2022/11/18 07:04:27;;;;;;;0.60;0.60;;;7.80;99.90;;;;;;4968633;28;20044;-91
2022/11/18 07:07:01;;;;;;;0.60;0.60;;;7.80;99.90;;;;;;4960092;28;20091;-90
2022/11/18 07:09:27;;;;;;;0.60;0.60;;;7.90;99.90;;;;;;4968155;28;20048;-88
2022/11/18 07:11:53;;;;;;;0.60;0.60;;;7.90;99.90;;;;;;4967766;28;20938;-87
2022/11/18 07:14:21;;;;;;;0.60;0.60;;;7.90;99.90;;;;;;4988816;28;20051;-91
2022/11/18 07:16:47;;;;;;;0.60;0.60;;;7.90;99.90;;;;;;4971849;28;20040;-88
2022/11/18 07:22:02;;;;;;;0.60;0.60;;;7.80;99.90;;;;;;4983127;28;20482;-89
2022/11/18 07:24:28;;;;;;;0.60;0.60;;;7.70;99.90;;;;;;4956031;28;20075;-88
2022/11/18 07:26:57;;;;;;;0.60;0.60;;;7.80;99.90;;;;;;4963773;28;20048;-90
2022/11/18 07:29:22;;;;;;;0.60;0.60;;;7.80;99.90;;;;;;4974440;28;20211;-89
2022/11/18 07:31:51;;;;;;;0.60;0.60;;;7.70;99.90;;;;;;4955461;28;20186;-89
2022/11/18 07:34:20;;;;;;;0.60;0.60;;;7.80;99.90;;;;;;4960719;28;20494;-89
2022/11/18 07:36:45;;;;;;;0.60;0.60;;;7.80;99.90;;;;;;4964404;28;20044;-91
2022/11/18 07:39:17;;;;;;;0.60;0.60;;;7.80;99.90;;;;;;4972637;28;20456;-89
2022/11/18 07:41:43;;;;;;;0.60;0.60;;;7.80;99.90;;;;;;4967995;28;20102;-90
2022/11/18 07:44:11;;;;;;;0.70;0.70;;;7.90;99.90;;;;;;4949123;28;20335;-87
2022/11/18 07:47:06;;;;;;;0.60;0.60;;;7.90;99.90;;;;;;4998038;28;20080;-91
2022/11/18 07:49:31;;;;;;;0.60;0.60;;;7.70;99.90;;;;;;5012181;28;20127;-92
2022/11/18 07:52:03;;;;;;;0.60;0.60;;;7.80;99.90;;;;;;4969161;28;20102;-90
2022/11/18 07:54:29;;;;;;;0.60;0.60;;;7.80;99.90;;;;;;4961928;28;20083;-88
2022/11/18 07:56:55;;;;;;;0.60;0.60;;;7.70;99.90;;;;;;4955582;28;20467;-87
2022/11/18 07:59:20;;;;;;;0.60;0.60;;;7.80;99.90;;;;;;4970832;28;20582;-86
2022/11/18 08:02:05;;;;;;;0.60;0.60;;;7.80;99.90;;;;;;4984272;28;20098;-85
2022/11/18 08:04:31;;;;;;;0.60;0.60;;;7.80;99.90;;;;;;4989776;28;20494;-90
2022/11/18 08:06:57;;;;;;;0.60;0.60;;;7.80;99.90;;;;;;4968997;28;20109;-90
2022/11/18 08:09:25;;;;;;;0.60;0.60;;;7.80;99.90;;;;;;4958972;28;20406;-89
2022/11/18 08:11:51;;;;;;;0.60;0.60;;;7.80;99.90;;;;;;4972758;28;20060;-86
2022/11/18 08:14:17;;;;;;;0.63;0.63;;;7.80;99.90;;;;;;4970414;28;20045;-89
2022/11/18 08:16:45;;;;;;;0.60;0.60;;;7.80;99.90;;;;;;4968549;28;20072;-92
2022/11/18 08:19:14;;;;;;;0.60;0.60;;;7.80;99.90;;;;;;4972011;28;20143;-89
2022/11/18 08:21:40;;;;;;;0.60;0.60;;;7.70;99.90;;;;;;4979641;28;20369;-87
2022/11/18 08:24:08;;;;;;;0.60;0.60;;;7.80;99.90;;;;;;4963211;28;20873;-88
2022/11/18 08:26:34;;;;;;;0.60;0.60;;;7.80;99.90;;;;;;4947840;28;20486;-89
2022/11/18 08:29:00;;;;;;;0.60;0.60;;;7.80;99.90;;;;;;4944221;28;20362;-88
2022/11/18 08:31:29;;;;;;;0.60;0.60;;;7.90;99.90;;;;;;4950497;28;20656;-91
2022/11/18 08:34:02;;;;;;;0.60;0.60;;;7.80;99.90;;;;;;4971297;28;20133;-91
2022/11/18 08:36:31;;;;;;;0.60;0.60;;;7.80;99.90;;;;;;4986480;28;20101;-89
2022/11/18 08:38:58;;;;;;;0.60;0.60;;;7.90;99.90;;;;;;4968981;28;20109;-87
2022/11/18 08:41:43;;;;;;;0.60;0.60;;;8.00;99.90;;;;;;4972782;28;20040;-88
2022/11/18 08:44:14;;;;;;;0.60;0.60;;;7.90;99.90;;;;;;4990800;28;20053;-90
2022/11/18 08:46:40;;;;;;;0.60;0.60;;;8.00;99.90;;;;;;4967776;28;20071;-87
2022/11/18 08:49:09;;;;;;;0.60;0.60;;;7.90;99.90;;;;;;4948337;28;20047;-90
2022/11/18 08:51:35;;;;;;;0.60;0.60;;;7.80;99.90;;;;;;4957544;28;21019;-88
2022/11/18 08:54:07;;;;;;;0.60;0.60;;;7.80;99.90;;;;;;4966844;28;20036;-94
2022/11/18 08:56:33;;;;;;;0.60;0.60;;;7.90;99.90;;;;;;4946817;28;20044;-87
2022/11/18 08:58:59;;;;;;;0.60;0.60;;;7.90;99.90;;;;;;4973250;28;20098;-86
2022/11/18 09:01:25;;;;;;;0.60;0.60;;;7.80;99.90;;;;;;4957055;28;20068;-85
2022/11/18 09:03:53;;;;;;;0.60;0.60;;;7.70;99.90;;;;;;4960815;28;20681;-89
2022/11/18 09:06:25;;;;;;;0.60;0.60;;;7.80;99.90;;;;;;4961551;28;20127;-91
2022/11/18 09:08:52;;;;;;;0.60;0.60;;;7.80;99.90;;;;;;4984617;28;20036;-87
2022/11/18 09:11:26;;;;;;;0.60;0.60;;;7.80;99.90;;;;;;5008306;28;20062;-93
2022/11/18 09:14:01;;;;;;;0.60;0.60;;;7.70;99.90;;;;;;4977700;28;20048;-93
2022/11/18 09:16:29;;;;;;;0.60;0.60;;;7.80;99.90;;;;;;4976058;28;20060;-89
2022/11/18 09:18:56;;;;;;;0.60;0.60;;;7.80;99.90;;;;;;4978945;28;20032;-93
2022/11/18 09:21:22;;;;;;;0.60;0.60;;;7.90;99.90;;;;;;4980717;28;20052;-91
2022/11/18 09:23:56;;;;;;;0.60;0.60;;;7.80;99.90;;;;;;4970751;28;20037;-89
2022/11/18 09:26:27;;;;;;;0.60;0.60;;;7.70;99.90;;;;;;4989721;28;20064;-93
2022/11/18 09:29:02;;;;;;;0.60;0.60;;;7.60;99.90;;;;;;4975378;28;20124;-90
2022/11/18 09:31:43;;;;;;;0.60;0.60;;;7.70;99.90;;;;;;4977296;28;20356;-92
2022/11/18 09:34:10;;;;;;;0.60;0.60;;;7.60;99.90;;;;;;4982590;28;20062;-91
2022/11/18 09:36:36;;;;;;;0.60;0.60;;;7.60;99.90;;;;;;4971500;28;20398;-89
2022/11/18 09:39:05;;;;;;;0.60;0.60;;;7.60;99.90;;;;;;4971097;28;20367;-89
2022/11/18 09:41:53;;;;;;;0.60;0.60;;;7.60;99.90;;;;;;4971438;28;20047;-91
2022/11/18 09:45:04;;;;;;;0.60;0.60;;;7.50;99.90;;;;;;4968532;28;20068;-88
2022/11/18 09:47:39;;;;;;;0.60;0.60;;;7.40;99.90;;;;;;4925188;28;20449;-87
2022/11/18 09:53:13;;;;;;;0.60;0.60;;;7.40;99.90;;;;;;4983277;28;20040;-90
2022/11/18 09:56:14;;;;;;;0.60;0.60;;;7.50;99.90;;;;;;4972493;28;20381;-93
2022/11/18 09:58:46;;;;;;;0.60;0.60;;;7.60;99.90;;;;;;4958932;28;20164;-93
2022/11/18 10:01:19;;;;;;;0.52;0.52;;;7.50;99.90;;;;;;4966326;28;20564;-91
2022/11/18 10:03:54;;;;;;;0.60;0.60;;;7.40;99.90;;;;;;4963382;28;20048;-90
2022/11/18 10:06:45;;;;;;;0.70;0.70;;;7.50;99.90;;;;;;4963189;28;20036;-90
2022/11/18 10:09:34;;;;;;;0.60;0.60;;;7.60;99.90;;;;;;4981251;28;20102;-87
2022/11/18 10:12:43;;;;;;;0.60;0.60;;;7.50;99.90;;;;;;4970890;28;20071;-91
2022/11/18 10:15:46;;;;;;;0.60;0.60;;;7.40;99.90;;;;;;4987664;28;20051;-88
2022/11/18 10:18:49;;;;;;;0.60;0.60;;;7.50;99.90;;;;;;4978015;28;20396;-93
2022/11/18 10:21:36;;;;;;;0.60;0.60;;;7.50;99.90;;;;;;4897000;28;20461;-92
2022/11/18 10:24:22;;;;;;;0.60;0.60;;;7.40;99.90;;;;;;4963701;28;20976;-89
2022/11/18 10:27:13;;;;;;;0.60;0.60;;;7.50;99.90;;;;;;4969681;28;20052;-93
2022/11/18 10:29:43;;;;;;;0.60;0.60;;;7.40;99.90;;;;;;4990668;28;20093;-91
2022/11/18 10:32:15;;;;;;;0.60;0.60;;;7.50;99.90;;;;;;4970506;28;20059;-89
2022/11/18 10:34:55;;;;;;;0.60;0.60;;;7.40;99.90;;;;;;4976305;28;20051;-88
2022/11/18 10:37:22;;;;;;;0.60;0.60;;;7.40;99.90;;;;;;4961069;28;20044;-90
2022/11/18 10:39:56;;;;;;;0.60;0.60;;;7.30;99.90;;;;;;4978907;28;20390;-89
2022/11/18 10:42:50;;;;;;;0.60;0.60;;;7.40;99.90;;;;;;4990452;28;20839;-88
2022/11/18 10:45:24;;;;;;;0.60;0.60;;;7.50;99.90;;;;;;4979655;28;20071;-90
2022/11/18 10:48:14;;;;;;;0.60;0.60;;;7.30;99.90;;;;;;4986755;28;20102;-94
2022/11/18 10:50:55;;;;;;;0.60;0.60;;;7.30;99.90;;;;;;4984698;28;20067;-95
2022/11/18 10:53:41;;;;;;;0.60;0.60;;;7.30;99.90;;;;;;4991844;28;20107;-91
2022/11/18 10:56:10;;;;;;;0.60;0.60;;;7.30;99.90;;;;;;4981358;28;20098;-89
2022/11/18 10:58:48;;;;;;;0.60;0.60;;;7.20;99.90;;;;;;4968477;28;20228;-91
2022/11/18 11:01:25;;;;;;;0.60;0.60;;;7.30;99.90;;;;;;4958161;28;20568;-91
2022/11/18 11:04:16;;;;;;;0.60;0.60;;;7.20;99.90;;;;;;4954731;28;20036;-93
2022/11/18 11:06:48;;;;;;;0.60;0.60;;;7.30;99.90;;;;;;4981671;28;20461;-90
2022/11/18 11:09:22;;;;;;;0.60;0.60;;;7.10;99.90;;;;;;4960004;28;20127;-87
2022/11/18 11:12:26;;;;;;;0.60;0.60;;;7.10;99.90;;;;;;4979947;28;20158;-93
2022/11/18 11:14:56;;;;;;;0.60;0.60;;;7.20;99.90;;;;;;4880162;28;20051;-94
2022/11/18 11:17:32;;;;;;;0.60;0.60;;;7.00;99.90;;;;;;4986603;28;20113;-90
2022/11/18 11:20:19;;;;;;;0.60;0.60;;;7.10;99.90;;;;;;4971403;28;20064;-89
2022/11/18 11:22:48;;;;;;;0.60;0.60;;;7.00;99.90;;;;;;4991115;28;20137;-92
2022/11/18 11:25:39;;;;;;;0.70;0.70;;;7.00;99.90;;;;;;4972882;28;20045;-87
2022/11/18 11:28:35;;;;;;;0.60;0.60;;;7.10;99.90;;;;;;4965885;28;20067;-94
2022/11/18 11:31:16;;;;;;;0.60;0.60;;;7.10;99.90;;;;;;4975373;28;20044;-91
2022/11/18 11:34:05;;;;;;;0.60;0.60;;;7.00;99.90;;;;;;4975623;28;20083;-87
2022/11/18 11:36:57;;;;;;;0.60;0.60;;;6.90;99.90;;;;;;4978044;28;20091;-89
2022/11/18 11:39:41;;;;;;;0.60;0.60;;;7.00;99.90;;;;;;4982833;28;20625;-94
2022/11/18 11:42:48;;;;;;;0.60;0.60;;;7.00;99.90;;;;;;4981651;28;20183;-90
2022/11/18 11:45:30;;;;;;;0.60;0.60;;;7.00;99.90;;;;;;4988284;28;20136;-89
2022/11/18 11:48:31;;;;;;;0.70;0.70;;;7.00;99.90;;;;;;4984843;28;20433;-93
2022/11/18 11:51:06;;;;;;;0.60;0.60;;;7.00;99.90;;;;;;4993268;28;20443;-91
2022/11/18 11:54:13;;;;;;;0.60;0.60;;;6.90;99.90;;;;;;4980142;28;20363;-90
2022/11/18 11:56:50;;;;;;;0.65;0.65;;;6.90;99.90;;;;;;4966110;28;20036;-93
2022/11/18 11:59:36;;;;;;;0.70;0.70;;;6.80;99.90;;;;;;4974642;28;20670;-92
2022/11/18 12:02:14;;;;;;;0.60;0.60;;;6.80;99.90;;;;;;4999186;28;20913;-92
2022/11/18 12:05:01;;;;;;;0.60;0.60;;;7.00;99.90;;;;;;4972086;28;20052;-91
2022/11/18 12:07:32;;;;;;;0.60;0.60;;;6.90;99.90;;;;;;4980990;28;20055;-94
2022/11/18 12:10:16;;;;;;;0.63;0.63;;;7.00;99.90;;;;;;4978539;28;20044;-94
2022/11/18 12:13:00;;;;;;;0.60;0.60;;;6.90;99.90;;;;;;4970532;28;20037;-91
2022/11/18 12:16:04;;;;;;;0.70;0.70;;;6.80;99.90;;;;;;4974743;28;20206;-90
2022/11/18 12:18:46;;;;;;;0.60;0.60;;;6.90;99.90;;;;;;4971748;28;20051;-93
2022/11/18 12:21:44;;;;;;;0.60;0.60;;;6.70;99.90;;;;;;4995008;28;20044;-89
2022/11/18 12:24:24;;;;;;;0.60;0.60;;;6.60;99.90;;;;;;4943655;28;20110;-91
2022/11/18 12:26:50;;;;;;;0.60;0.60;;;6.60;99.90;;;;;;4986676;28;20040;-94
2022/11/18 12:29:19;;;;;;;0.70;0.70;;;6.70;99.90;;;;;;4981199;28;20139;-89
2022/11/18 12:32:00;;;;;;;0.60;0.60;;;6.70;99.90;;;;;;4992726;28;20044;-91
2022/11/18 12:34:43;;;;;;;0.60;0.60;;;6.70;99.90;;;;;;4966852;28;20063;-91
2022/11/18 12:37:24;;;;;;;0.60;0.60;;;6.70;99.90;;;;;;4975456;28;20850;-89
2022/11/18 12:39:59;;;;;;;0.60;0.60;;;6.60;99.90;;;;;;4974826;28;20550;-88
2022/11/18 12:45:43;;;;;;;0.60;0.60;;;6.60;99.90;;;;;;4987621;28;20048;-91
2022/11/18 12:48:39;;;;;;;0.60;0.60;;;6.50;99.90;;;;;;5002566;28;20184;-89
2022/11/18 12:51:18;;;;;;;0.60;0.60;;;6.40;99.90;;;;;;4979030;28;20115;-90
2022/11/18 12:53:49;;;;;;;0.60;0.60;;;6.50;99.90;;;;;;4992552;28;20060;-94
2022/11/18 12:56:28;;;;;;;0.60;0.60;;;6.40;99.90;;;;;;4968731;28;20890;-89
2022/11/18 12:59:13;;;;;;;0.60;0.60;;;6.40;99.90;;;;;;4971519;28;20056;-93
2022/11/18 13:01:42;;;;;;;0.70;0.70;;;6.40;99.90;;;;;;4972911;28;20048;-91
2022/11/18 13:04:20;;;;;;;0.60;0.60;;;6.50;99.90;;;;;;4946556;28;20376;-94
2022/11/18 13:06:46;;;;;;;0.60;0.60;;;6.40;99.90;;;;;;4974380;28;20044;-91
2022/11/18 13:09:17;;;;;;;0.60;0.60;;;6.40;99.90;;;;;;4975506;28;20911;-86
2022/11/18 13:12:13;;;;;;;0.60;0.60;;;6.30;99.90;;;;;;4978257;28;20045;-88
2022/11/18 13:17:53;;;;;;;0.60;0.60;;;6.20;99.90;;;;;;4991663;28;20138;-94
2022/11/18 13:20:36;;;;;;;0.60;0.60;;;6.40;99.90;;;;;;4943358;28;20036;-91
2022/11/18 13:26:30;;;;;;;0.60;0.60;;;6.30;99.90;;;;;;4984549;28;20565;-91
2022/11/18 13:28:55;;;;;;;0.60;0.60;;;6.30;99.90;;;;;;4978787;28;20375;-87
2022/11/18 13:31:33;;;;;;;0.60;0.60;;;6.40;99.90;;;;;;4985109;28;20041;-92
2022/11/18 13:34:32;;;;;;;0.60;0.60;;;6.20;99.90;;;;;;4990771;28;20128;-91
2022/11/18 13:37:22;;;;;;;0.60;0.60;;;6.40;99.90;;;;;;4974279;28;20049;-92
2022/11/18 13:39:48;;;;;;;0.60;0.60;;;6.20;99.90;;;;;;4992156;28;20505;-88
2022/11/18 13:42:43;;;;;;;0.60;0.60;;;6.10;99.90;;;;;;4961257;28;20044;-94
2022/11/18 13:45:31;;;;;;;0.60;0.60;;;6.10;99.90;;;;;;4984749;28;20048;-94
2022/11/18 13:48:09;;;;;;;0.60;0.60;;;6.10;99.90;;;;;;4988950;28;20056;-91
2022/11/18 13:50:50;;;;;;;0.60;0.60;;;6.00;99.90;;;;;;4992386;28;20048;-87
2022/11/18 13:53:48;;;;;;;0.60;0.60;;;6.00;99.90;;;;;;4988205;28;20353;-93
2022/11/18 13:56:34;;;;;;;0.60;0.60;;;6.10;99.90;;;;;;4982635;28;20378;-92
2022/11/18 13:59:13;;;;;;;0.60;0.60;;;6.00;99.90;;;;;;4954998;28;20050;-94
2022/11/18 14:01:42;;;;;;;0.60;0.60;;;6.00;99.90;;;;;;4967454;28;20640;-92
2022/11/18 14:07:39;;;;;;;0.68;0.68;;;5.70;99.90;;;;;;4938002;28;20224;-92
2022/11/18 14:10:09;;;;;;;0.60;0.60;;;5.70;99.90;;;;;;4944925;28;20976;-94
2022/11/18 14:12:54;;;;;;;0.60;0.60;;;5.70;99.90;;;;;;4947640;28;20655;-95
2022/11/18 14:15:22;;;;;;;0.60;0.60;;;5.50;99.90;;;;;;4951255;28;20050;-91